Time;durP1;ratioP1;P1;durP2;ratioP2;P2;SDS_P1;SDS_P2;PMS_P1;PMS_P2;Temp;Humidity;BMP_temperature;BMP_pressure;BME280_temperature;BME280_humidity;BME280_pressure;Samples;Min_cycle;Max_cycle;Signal;HPM_P1;HPM_P2
2021/06/08 00:02:20;;;;;;;58.80;40.20;;;;;;;16.74;100.00;96676.31;5002824;28;20448;-94
2021/06/08 00:04:46;;;;;;;49.67;38.73;;;;;;;16.77;100.00;96675.88;5003264;28;20996;-94
2021/06/08 00:07:13;;;;;;;52.13;38.53;;;;;;;16.88;100.00;96680.78;5002966;28;20500;-94
2021/06/08 00:09:41;;;;;;;50.47;37.90;;;;;;;16.87;100.00;96678.59;5002623;28;20444;-94
2021/06/08 00:12:08;;;;;;;54.50;39.47;;;;;;;16.87;100.00;96682.06;5002574;28;20531;-94
2021/06/08 00:14:35;;;;;;;51.33;37.33;;;;;;;16.83;100.00;96686.50;5002654;28;20465;-94
2021/06/08 00:17:06;;;;;;;55.17;39.50;;;;;;;16.79;100.00;96689.66;5002749;28;20933;-93
2021/06/08 00:19:32;;;;;;;48.60;38.43;;;;;;;16.90;100.00;96694.53;5002851;28;20441;-93
2021/06/08 00:21:59;;;;;;;49.17;36.53;;;;;;;16.86;100.00;96688.78;5001763;28;20465;-93
2021/06/08 00:24:25;;;;;;;55.60;38.10;;;;;;;16.81;100.00;96700.72;5002222;28;20445;-93
2021/06/08 00:26:53;;;;;;;52.77;38.20;;;;;;;16.85;100.00;96689.38;5002254;28;20434;-93
2021/06/08 00:29:30;;;;;;;52.97;38.93;;;;;;;16.93;100.00;96690.66;5002352;28;20463;-94
2021/06/08 00:31:56;;;;;;;46.37;36.00;;;;;;;16.91;100.00;96693.25;5002533;28;20452;-93
2021/06/08 00:34:22;;;;;;;48.47;37.43;;;;;;;16.78;100.00;96682.78;5001304;28;20446;-93
2021/06/08 00:36:48;;;;;;;48.50;38.90;;;;;;;16.84;100.00;96685.94;5001193;28;20434;-93
2021/06/08 00:39:14;;;;;;;52.07;39.53;;;;;;;16.63;100.00;96685.78;5001588;28;20432;-93
2021/06/08 00:41:43;;;;;;;57.73;41.37;;;;;;;16.67;100.00;96682.63;5003342;28;20892;-93
2021/06/08 00:44:13;;;;;;;51.60;39.50;;;;;;;16.70;100.00;96689.63;5013446;28;20418;-93
2021/06/08 00:46:40;;;;;;;50.63;38.33;;;;;;;16.65;100.00;96680.47;5019988;28;20531;-95
2021/06/08 00:49:06;;;;;;;53.43;38.97;;;;;;;16.72;100.00;96678.91;5020011;28;20491;-95
2021/06/08 00:51:33;;;;;;;54.83;39.80;;;;;;;16.63;100.00;96679.63;5019962;28;20417;-95
2021/06/08 00:54:05;;;;;;;52.57;38.57;;;;;;;16.56;100.00;96676.47;5014610;28;20424;-94
2021/06/08 00:56:31;;;;;;;51.40;39.53;;;;;;;16.68;100.00;96684.06;5002218;28;20453;-94
2021/06/08 00:58:57;;;;;;;53.90;40.90;;;;;;;16.63;100.00;96671.44;5003016;28;20453;-93
2021/06/08 01:01:25;;;;;;;55.33;41.63;;;;;;;16.68;100.00;96671.16;5005018;28;20535;-94
2021/06/08 01:03:51;;;;;;;55.07;39.63;;;;;;;16.75;100.00;96662.13;5006780;28;20478;-94
2021/06/08 01:06:17;;;;;;;50.90;38.77;;;;;;;16.76;100.00;96658.09;5001937;28;20500;-93
2021/06/08 01:08:44;;;;;;;55.77;39.03;;;;;;;16.78;100.00;96673.88;5002530;28;20429;-93
2021/06/08 01:11:10;;;;;;;59.83;39.00;;;;;;;16.71;100.00;96667.28;5002625;28;20528;-94
2021/06/08 01:13:36;;;;;;;52.00;38.77;;;;;;;16.76;100.00;96660.13;5002694;28;20548;-94
2021/06/08 01:16:03;;;;;;;55.80;40.40;;;;;;;16.79;100.00;96659.66;5002391;28;20955;-94
2021/06/08 01:18:30;;;;;;;49.27;36.37;;;;;;;16.75;100.00;96656.66;5003292;28;20441;-93
2021/06/08 01:21:03;;;;;;;52.60;36.90;;;;;;;16.79;100.00;96651.50;5002466;28;20453;-93
2021/06/08 01:23:30;;;;;;;49.97;36.27;;;;;;;16.75;100.00;96653.94;5002624;28;20465;-92
2021/06/08 01:25:56;;;;;;;53.47;35.37;;;;;;;16.72;100.00;96657.81;5004088;28;21020;-94
2021/06/08 01:28:23;;;;;;;49.30;34.83;;;;;;;16.77;100.00;96654.09;5003136;28;20430;-93
2021/06/08 01:30:50;;;;;;;45.63;35.07;;;;;;;16.82;100.00;96655.78;5007379;28;20449;-93
2021/06/08 01:33:17;;;;;;;44.00;32.77;;;;;;;16.86;100.00;96656.09;5013822;28;20460;-94
2021/06/08 01:35:44;;;;;;;46.70;34.40;;;;;;;16.88;100.00;96661.69;5003247;28;20548;-94
2021/06/08 01:38:13;;;;;;;40.63;33.37;;;;;;;16.89;100.00;96665.84;5014730;28;20495;-93
2021/06/08 01:40:40;;;;;;;45.90;33.47;;;;;;;16.93;100.00;96668.84;5019147;28;20421;-94
2021/06/08 01:43:06;;;;;;;43.90;34.07;;;;;;;16.95;100.00;96660.09;5018897;28;20440;-95
2021/06/08 01:45:33;;;;;;;47.50;36.90;;;;;;;16.95;100.00;96660.81;5018783;28;20556;-95
2021/06/08 01:47:59;;;;;;;44.83;34.20;;;;;;;16.99;100.00;96661.09;5018805;28;20456;-95
2021/06/08 01:50:26;;;;;;;47.43;36.57;;;;;;;16.92;100.00;96653.06;5010470;28;20594;-94
2021/06/08 01:52:59;;;;;;;49.67;38.37;;;;;;;16.90;100.00;96661.81;5003529;28;20477;-95
2021/06/08 01:55:31;;;;;;;54.93;37.63;;;;;;;17.03;100.00;96660.66;5011421;28;20461;-94
2021/06/08 01:58:08;;;;;;;47.47;35.77;;;;;;;16.94;100.00;96656.66;5009156;28;20457;-94
2021/06/08 02:00:40;;;;;;;48.43;37.53;;;;;;;16.92;100.00;96663.97;5003240;28;20421;-93
2021/06/08 02:03:13;;;;;;;57.67;37.87;;;;;;;16.89;100.00;96665.84;5011956;28;20440;-94
2021/06/08 02:05:46;;;;;;;48.77;36.50;;;;;;;17.02;100.00;96664.66;5018001;28;20500;-94
2021/06/08 02:08:24;;;;;;;47.83;35.57;;;;;;;16.94;100.00;96667.56;5018631;28;20465;-94
2021/06/08 02:10:55;;;;;;;51.30;39.53;;;;;;;16.90;100.00;96661.81;5018601;28;20428;-94
2021/06/08 02:13:30;;;;;;;57.90;40.57;;;;;;;16.90;100.00;96661.09;5006453;28;20941;-94
2021/06/08 02:16:00;;;;;;;48.50;38.10;;;;;;;16.93;100.00;96670.84;5000226;28;20480;-94
2021/06/08 02:18:29;;;;;;;46.60;36.90;;;;;;;16.91;100.00;96671.44;5000865;28;20444;-95
2021/06/08 02:20:57;;;;;;;47.43;37.63;;;;;;;16.99;100.00;96665.81;5001200;28;20448;-95
2021/06/08 02:23:25;;;;;;;46.00;36.10;;;;;;;16.97;100.00;96662.97;5001063;28;20575;-94
2021/06/08 02:25:54;;;;;;;53.57;41.50;;;;;;;16.91;100.00;96676.19;5002644;28;20572;-95
2021/06/08 02:28:25;;;;;;;48.87;36.23;;;;;;;16.89;100.00;96674.00;5007690;28;20441;-95
2021/06/08 02:30:54;;;;;;;52.40;39.40;;;;;;;17.01;100.00;96672.13;5001981;28;20945;-95
2021/06/08 02:33:21;;;;;;;54.83;41.33;;;;;;;17.04;100.00;96681.19;5002099;28;20472;-95
2021/06/08 02:35:48;;;;;;;55.50;40.57;;;;;;;16.86;100.00;96674.44;5001676;28;20511;-94
2021/06/08 02:38:16;;;;;;;58.47;41.17;;;;;;;16.80;100.00;96680.19;5001738;28;20476;-94
2021/06/08 02:40:43;;;;;;;55.87;40.67;;;;;;;16.87;100.00;96675.88;5000948;28;20499;-95
2021/06/08 02:43:12;;;;;;;58.17;39.13;;;;;;;16.97;100.00;96674.59;5002768;28;20467;-95
2021/06/08 02:45:41;;;;;;;59.40;41.27;;;;;;;16.94;100.00;96677.75;5005557;28;20576;-95
2021/06/08 02:48:08;;;;;;;55.67;42.77;;;;;;;16.87;100.00;96667.69;5008765;28;20523;-94
2021/06/08 02:50:35;;;;;;;53.73;37.93;;;;;;;16.92;100.00;96670.13;5009180;28;20947;-95
2021/06/08 02:53:02;;;;;;;60.40;42.87;;;;;;;16.90;100.00;96672.72;5007942;28;20453;-95
2021/06/08 02:55:28;;;;;;;57.63;41.43;;;;;;;16.84;100.00;96685.22;5004674;28;20484;-95
2021/06/08 02:57:57;;;;;;;65.20;40.20;;;;;;;16.76;100.00;96674.44;5004982;28;20449;-94
2021/06/08 03:00:26;;;;;;;57.70;42.27;;;;;;;16.73;100.00;96672.88;5005514;28;20484;-95
2021/06/08 03:02:54;;;;;;;57.63;42.47;;;;;;;16.79;100.00;96676.00;5005768;28;20436;-95
2021/06/08 03:05:25;;;;;;;55.30;40.97;;;;;;;16.78;100.00;96671.88;5007169;28;20905;-94
2021/06/08 03:07:55;;;;;;;60.77;43.67;;;;;;;16.81;100.00;96670.00;5007104;28;20948;-94
2021/06/08 03:10:23;;;;;;;63.20;45.97;;;;;;;16.63;100.00;96669.44;5008698;28;21005;-95
2021/06/08 03:12:54;;;;;;;61.40;42.73;;;;;;;16.64;100.00;96676.31;5006810;28;20452;-94
2021/06/08 03:15:26;;;;;;;65.53;44.13;;;;;;;16.69;100.00;96675.31;5007590;28;20457;-94
2021/06/08 03:17:53;;;;;;;54.37;40.73;;;;;;;16.69;100.00;96671.88;5007205;28;20988;-94
2021/06/08 03:20:24;;;;;;;59.87;40.90;;;;;;;16.72;100.00;96676.91;5007598;28;20462;-95
2021/06/08 03:22:55;;;;;;;63.07;43.47;;;;;;;16.73;100.00;96678.31;5007422;28;20425;-95
2021/06/08 03:25:24;;;;;;;59.13;41.90;;;;;;;16.66;100.00;96676.47;5008886;28;20487;-94
2021/06/08 03:27:54;;;;;;;62.30;41.30;;;;;;;16.74;100.00;96676.31;5014019;28;20440;-94
2021/06/08 03:30:21;;;;;;;67.13;42.37;;;;;;;16.66;100.00;96673.75;5010000;28;20449;-95
2021/06/08 03:32:50;;;;;;;59.27;41.43;;;;;;;16.60;100.00;96667.88;5008169;28;21040;-94
2021/06/08 03:35:17;;;;;;;59.60;43.27;;;;;;;16.64;100.00;96673.59;5009545;28;20487;-95
2021/06/08 03:37:44;;;;;;;63.90;43.43;;;;;;;16.56;100.00;96664.84;5007023;28;20981;-95
2021/06/08 03:40:12;;;;;;;58.93;43.30;;;;;;;16.60;100.00;96670.59;5008057;28;20441;-95
2021/06/08 03:42:39;;;;;;;61.87;43.00;;;;;;;16.67;100.00;96669.72;5012035;28;20445;-96
2021/06/08 03:45:17;;;;;;;60.57;45.47;;;;;;;16.50;100.00;96669.84;5021003;28;20500;-96
2021/06/08 03:47:44;;;;;;;60.80;44.40;;;;;;;16.60;100.00;96671.28;5016671;28;20455;-94
2021/06/08 03:50:15;;;;;;;58.17;42.67;;;;;;;16.57;100.00;96682.63;5011515;28;20441;-94
2021/06/08 03:52:42;;;;;;;59.97;41.00;;;;;;;16.57;100.00;96682.63;5011474;28;20441;-95
2021/06/08 03:55:10;;;;;;;60.17;44.60;;;;;;;16.55;100.00;96679.75;5014192;28;20469;-94
2021/06/08 03:57:42;;;;;;;55.60;41.80;;;;;;;16.59;100.00;96680.03;5014617;28;20457;-94
2021/06/08 04:00:10;;;;;;;55.63;43.53;;;;;;;16.61;100.00;96691.06;5009614;28;20437;-94
2021/06/08 04:02:39;;;;;;;61.83;43.07;;;;;;;16.55;100.00;96685.19;5009241;28;20468;-95
2021/06/08 04:05:07;;;;;;;65.70;45.63;;;;;;;16.55;100.00;96694.09;5008889;28;20465;-96
2021/06/08 04:07:37;;;;;;;67.90;43.90;;;;;;;16.53;100.00;96685.75;5008092;28;20425;-94
2021/06/08 04:10:08;;;;;;;60.97;42.90;;;;;;;16.53;100.00;96690.47;5007619;28;20805;-94
2021/06/08 04:12:34;;;;;;;60.73;43.67;;;;;;;16.50;100.00;96694.34;5009184;28;20537;-94
2021/06/08 04:15:03;;;;;;;63.50;45.47;;;;;;;16.45;100.00;96696.06;5010344;28;20583;-94
2021/06/08 04:17:31;;;;;;;61.77;44.40;;;;;;;16.48;100.00;96694.19;5009821;28;20454;-94
2021/06/08 04:19:59;;;;;;;68.50;47.17;;;;;;;16.40;100.00;96702.50;5007803;28;20453;-94
2021/06/08 04:22:29;;;;;;;73.07;46.10;;;;;;;16.36;100.00;96701.47;5008291;28;20433;-93
2021/06/08 04:24:58;;;;;;;64.70;43.20;;;;;;;16.35;100.00;96698.03;5008888;28;20469;-93
2021/06/08 04:27:26;;;;;;;67.20;45.70;;;;;;;16.43;100.00;96697.91;5011555;28;20445;-95
2021/06/08 04:29:53;;;;;;;65.43;44.33;;;;;;;16.54;100.00;96703.53;5011261;28;20500;-94
2021/06/08 04:32:20;;;;;;;64.97;45.20;;;;;;;16.58;100.00;96701.13;5005357;28;20460;-94
2021/06/08 04:34:48;;;;;;;60.63;43.67;;;;;;;16.53;100.00;96702.09;5006662;28;20464;-94
2021/06/08 04:37:14;;;;;;;63.90;42.60;;;;;;;16.63;100.00;96707.59;5009358;28;20453;-94
2021/06/08 04:39:49;;;;;;;68.43;45.33;;;;;;;16.59;100.00;96705.28;5011698;28;20550;-94
2021/06/08 04:42:18;;;;;;;65.70;43.87;;;;;;;16.46;100.00;96700.22;5017526;28;20410;-95
2021/06/08 04:44:45;;;;;;;58.40;42.90;;;;;;;16.53;100.00;96707.53;5011480;28;20453;-94
2021/06/08 04:47:12;;;;;;;57.47;41.40;;;;;;;16.58;100.00;96709.28;5006965;28;20544;-94
2021/06/08 04:49:39;;;;;;;60.80;45.17;;;;;;;16.61;100.00;96710.16;5006206;28;20553;-95
2021/06/08 04:52:09;;;;;;;61.17;43.97;;;;;;;16.44;100.00;96708.25;5007638;28;20442;-94
2021/06/08 04:54:37;;;;;;;66.53;45.83;;;;;;;16.46;100.00;96702.94;5007500;28;20444;-94
2021/06/08 04:57:06;;;;;;;72.80;45.57;;;;;;;16.48;100.00;96699.63;5012667;28;20503;-94
2021/06/08 04:59:39;;;;;;;63.00;44.70;;;;;;;16.45;100.00;96698.06;5008872;28;20437;-94
2021/06/08 05:12:14;;;;;;;60.17;42.10;;;;;;;16.48;100.00;96697.63;5019562;28;20421;-93
2021/06/08 05:15:25;;;;;;;59.47;41.23;;;;;;;16.48;100.00;96703.09;5019172;28;20449;-95
2021/06/08 05:17:55;;;;;;;60.63;42.70;;;;;;;16.46;100.00;96707.66;5018991;28;20449;-94
2021/06/08 05:20:23;;;;;;;54.20;41.43;;;;;;;16.66;100.00;96698.28;5018641;28;20425;-95
2021/06/08 05:22:53;;;;;;;59.30;43.90;;;;;;;16.68;100.00;96706.59;5012558;28;20501;-94
2021/06/08 05:25:19;;;;;;;58.17;42.03;;;;;;;16.73;100.00;96713.75;5007915;28;20473;-94
2021/06/08 05:27:48;;;;;;;57.40;44.60;;;;;;;16.61;100.00;96718.31;5011689;28;20521;-93
2021/06/08 05:30:15;;;;;;;54.60;40.03;;;;;;;16.65;100.00;96713.19;5013908;28;20448;-94
2021/06/08 05:32:45;;;;;;;67.47;46.00;;;;;;;16.66;100.00;96711.16;5011788;28;20465;-94
2021/06/08 05:35:25;;;;;;;60.17;43.93;;;;;;;16.42;100.00;96716.25;5004758;28;20461;-92
2021/06/08 05:37:52;;;;;;;61.70;43.10;;;;;;;16.57;100.00;96718.75;5004642;28;20437;-91
2021/06/08 05:40:37;;;;;;;63.90;43.40;;;;;;;16.65;100.00;96718.63;5010013;28;20429;-93
2021/06/08 05:43:04;;;;;;;58.03;41.83;;;;;;;16.71;100.00;96718.34;5005392;28;20441;-91
2021/06/08 05:45:31;;;;;;;55.73;41.30;;;;;;;16.60;100.00;96723.06;5004353;28;20489;-91
2021/06/08 05:48:00;;;;;;;52.30;40.43;;;;;;;16.66;100.00;96725.53;5004555;28;20449;-92
2021/06/08 05:50:28;;;;;;;62.77;45.00;;;;;;;16.52;100.00;96729.91;5004635;28;20885;-90
2021/06/08 05:52:59;;;;;;;66.33;43.90;;;;;;;16.55;100.00;96726.78;5005293;28;20507;-91
2021/06/08 05:55:27;;;;;;;59.37;41.50;;;;;;;16.67;100.00;96726.94;5003568;28;20504;-92
2021/06/08 05:57:54;;;;;;;59.00;43.90;;;;;;;16.71;100.00;96721.06;5004237;28;20445;-92
2021/06/08 06:00:39;;;;;;;;;;;;;;;;;;;;;
2021/06/08 06:03:15;;;;;;;59.10;42.93;;;;;;;16.62;100.00;96722.50;5003478;28;20441;-91
2021/06/08 06:06:31;;;;;;;;;;;;;;;;;;;;;
2021/06/08 06:34:08;;;;;;;55.00;42.33;;;;;;;16.80;100.00;96723.78;5008524;28;20587;-90
2021/06/08 06:36:37;;;;;;;49.00;40.13;;;;;;;16.95;100.00;96726.22;5007980;28;20972;-92
2021/06/08 06:39:11;;;;;;;58.00;41.67;;;;;;;16.83;100.00;96728.09;5009483;28;20508;-93
2021/06/08 06:41:41;;;;;;;55.17;40.97;;;;;;;16.82;100.00;96732.09;5014163;28;20487;-93
2021/06/08 06:44:44;;;;;;;54.47;41.37;;;;;;;16.82;100.00;96743.00;5018413;28;20463;-95
2021/06/08 06:47:15;;;;;;;54.20;42.27;;;;;;;16.91;100.00;96739.59;4996247;28;20473;-94
2021/06/08 06:49:47;;;;;;;58.30;42.47;;;;;;;16.74;100.00;96742.44;5011881;28;20492;-95
2021/06/08 06:52:32;;;;;;;54.33;40.90;;;;;;;16.84;100.00;96745.91;4995081;28;20500;-95
2021/06/08 06:55:22;;;;;;;59.67;41.53;;;;;;;16.80;100.00;96737.44;4993872;28;20501;-94
2021/06/08 06:57:50;;;;;;;60.93;41.23;;;;;;;16.73;100.00;96745.75;4989107;28;20485;-94
2021/06/08 07:00:57;;;;;;;;;;;;;;;;;;;;;
2021/06/08 07:53:34;;;;;;;;;;;;;;;;;;;;;
2021/06/08 07:56:05;;;;;;;51.53;36.90;;;;;;;17.77;100.00;96757.16;5002052;28;20545;-91
2021/06/08 07:58:46;;;;;;;;;;;;;;;;;;;;;
2021/06/08 08:37:32;;;;;;;58.50;41.83;;;;;;;17.67;100.00;96781.75;4911642;29;20484;-93
2021/06/08 08:40:05;;;;;;;58.93;42.20;;;;;;;17.78;100.00;96778.44;4894225;29;20453;-92
2021/06/08 08:42:32;;;;;;;49.17;39.33;;;;;;;18.05;100.00;96778.94;4907289;29;20461;-92
2021/06/08 08:45:08;;;;;;;55.70;42.53;;;;;;;18.13;100.00;96789.69;4968714;28;20489;-95
2021/06/08 09:18:32;;;;;;;53.50;40.90;;;;;;;18.98;97.73;96793.28;4993342;28;20475;-89
2021/06/08 09:21:11;;;;;;;53.47;42.50;;;;;;;18.99;97.33;96789.25;4983185;28;20529;-89
2021/06/08 09:23:37;;;;;;;55.63;44.63;;;;;;;19.02;96.91;96796.28;4981793;28;20497;-88
2021/06/08 09:26:03;;;;;;;52.83;40.40;;;;;;;18.99;97.22;96789.25;4983311;28;20546;-91
2021/06/08 09:28:31;;;;;;;52.70;42.00;;;;;;;19.14;96.71;96799.78;4987141;28;20469;-90
2021/06/08 09:31:07;;;;;;;52.37;41.23;;;;;;;19.16;96.14;96786.25;4987163;28;20458;-93
2021/06/08 09:33:38;;;;;;;48.10;41.10;;;;;;;19.33;95.92;96795.50;4989306;28;20450;-92
2021/06/08 09:36:07;;;;;;;63.73;45.07;;;;;;;19.28;94.96;96794.50;4995922;28;20473;-93
2021/06/08 09:38:50;;;;;;;54.00;43.87;;;;;;;19.42;94.10;96792.00;4996004;28;20434;-95
2021/06/08 09:41:27;;;;;;;60.57;42.50;;;;;;;19.62;94.40;96791.22;4990167;28;20509;-93
2021/06/08 09:44:03;;;;;;;52.97;40.77;;;;;;;19.82;93.66;96786.25;4982907;28;20572;-89
2021/06/08 09:46:32;;;;;;;48.90;39.77;;;;;;;19.81;93.48;96790.31;4980536;28;20488;-89
2021/06/08 09:49:03;;;;;;;49.77;38.53;;;;;;;19.92;92.70;96795.09;4986654;28;20430;-92
2021/06/08 09:51:54;;;;;;;55.13;43.50;;;;;;;19.67;93.22;96792.19;4989007;28;20498;-90
2021/06/08 09:54:32;;;;;;;44.70;38.27;;;;;;;19.98;92.25;96790.00;4997638;28;20449;-93
2021/06/08 09:57:21;;;;;;;48.03;40.17;;;;;;;19.81;92.23;96786.84;4994019;28;20493;-93
2021/06/08 10:00:04;;;;;;;46.63;38.80;;;;;;;20.12;91.16;96790.84;4990014;28;20438;-92
2021/06/08 10:02:34;;;;;;;47.90;39.00;;;;;;;20.51;89.72;96788.38;4987513;28;20450;-91
2021/06/08 10:06:00;;;;;;;43.77;37.60;;;;;;;20.41;88.46;96787.78;4992330;28;20516;-91
2021/06/08 10:12:10;;;;;;;47.47;40.20;;;;;;;20.37;87.98;96787.53;4994581;28;20437;-94
2021/06/08 10:30:11;;;;;;;43.83;36.60;;;;;;;20.38;87.14;96788.25;4982662;28;20470;-91
2021/06/08 10:36:21;;;;;;;46.77;38.53;;;;;;;20.82;84.62;96801.81;4973897;28;20470;-92
2021/06/08 11:01:50;;;;;;;40.60;35.40;;;;;;;21.11;81.43;96791.13;4975472;26;20519;-91
2021/06/08 12:08:50;;;;;;;39.57;34.60;;;;;;;21.94;78.08;96757.22;5004681;28;20496;-91
2021/06/08 12:11:29;;;;;;;;;;;;;;;;;;;;;
2021/06/08 12:14:15;;;;;;;44.63;36.87;;;;;;;22.23;77.52;96759.38;5008526;28;20508;-93
2021/06/08 12:16:51;;;;;;;46.53;33.53;;;;;;;22.59;76.45;96755.72;5005099;28;20493;-92
2021/06/08 12:27:07;;;;;;;38.10;33.50;;;;;;;22.60;74.72;96748.91;4992841;23;20629;-87
2021/06/08 12:29:34;;;;;;;36.73;32.83;;;;;;;22.42;73.50;96745.25;4942522;29;20428;-87
2021/06/08 12:32:04;;;;;;;35.37;29.70;;;;;;;22.36;74.38;96742.91;4944819;29;20575;-90
2021/06/08 12:34:39;;;;;;;35.00;31.20;;;;;;;22.57;73.29;96746.66;4947451;29;20952;-92
2021/06/08 12:37:05;;;;;;;32.50;29.00;;;;;;;22.82;72.13;96743.78;4947419;29;20465;-89
2021/06/08 12:39:52;;;;;;;33.93;29.00;;;;;;;22.86;71.41;96744.72;4947931;29;20953;-92
2021/06/08 12:42:22;;;;;;;32.47;29.00;;;;;;;22.83;72.46;96740.44;4949425;29;20440;-91
2021/06/08 12:44:50;;;;;;;36.23;32.40;;;;;;;22.57;73.89;96732.91;4986819;23;20507;-87
2021/06/08 12:47:17;;;;;;;35.13;31.43;;;;;;;22.29;74.68;96732.91;4983023;28;20494;-87
2021/06/08 12:49:46;;;;;;;35.90;31.10;;;;;;;22.39;75.47;96733.44;4984137;28;20452;-90
2021/06/08 12:52:16;;;;;;;33.20;29.80;;;;;;;22.30;74.33;96731.56;4980946;28;20489;-86
2021/06/08 12:55:11;;;;;;;34.17;30.50;;;;;;;22.72;73.02;96732.28;4985040;28;20458;-89
2021/06/08 12:57:40;;;;;;;36.37;32.30;;;;;;;22.87;71.92;96720.63;4984255;28;20501;-89
2021/06/08 13:00:15;;;;;;;34.43;30.73;;;;;;;22.99;71.95;96720.53;4983686;28;20433;-87
2021/06/08 13:02:42;;;;;;;33.50;29.50;;;;;;;22.65;73.07;96728.53;4980719;28;20438;-90
2021/06/08 13:05:14;;;;;;;30.67;27.67;;;;;;;22.43;71.61;96728.13;4981135;28;20462;-88
2021/06/08 13:07:45;;;;;;;33.47;30.17;;;;;;;22.24;73.23;96712.03;4983325;28;20481;-88
2021/06/08 13:10:22;;;;;;;35.50;30.17;;;;;;;22.47;73.88;96715.88;4982913;28;20497;-88
2021/06/08 13:12:51;;;;;;;33.00;29.50;;;;;;;22.69;72.37;96719.75;4982691;28;20449;-88
2021/06/08 13:15:19;;;;;;;30.03;27.03;;;;;;;22.89;71.91;96710.47;4981501;28;20454;-86
2021/06/08 13:17:45;;;;;;;33.60;30.00;;;;;;;22.86;71.71;96711.69;4982122;28;20498;-86
2021/06/08 13:20:24;;;;;;;28.60;25.60;;;;;;;23.10;72.06;96703.84;4980491;28;20505;-87
2021/06/08 13:22:51;;;;;;;27.17;24.40;;;;;;;23.37;71.10;96716.78;4981660;28;20909;-88
2021/06/08 13:25:26;;;;;;;29.53;26.53;;;;;;;23.68;69.01;96711.34;4981464;28;20450;-89
2021/06/08 13:27:55;;;;;;;29.43;26.50;;;;;;;23.46;68.79;96724.16;4981306;28;20485;-90
2021/06/08 13:30:25;;;;;;;27.70;24.90;;;;;;;23.28;69.34;96717.75;4983028;28;20474;-88
2021/06/08 13:33:02;;;;;;;30.03;26.10;;;;;;;23.49;69.66;96711.19;4984965;28;20490;-89
2021/06/08 13:35:34;;;;;;;27.87;25.17;;;;;;;23.63;69.90;96720.78;4985012;28;20472;-90
2021/06/08 13:38:03;;;;;;;32.57;29.10;;;;;;;23.34;69.01;96718.75;4982930;28;20472;-88
2021/06/08 13:40:33;;;;;;;30.83;27.63;;;;;;;22.99;71.14;96704.00;4983959;28;20433;-88
2021/06/08 13:46:12;;;;;;;32.00;28.50;;;;;;;22.74;73.29;96705.56;4986611;28;20477;-89
2021/06/08 13:48:47;;;;;;;35.37;30.67;;;;;;;22.70;73.51;96704.69;4986704;28;20422;-90
2021/06/08 13:51:21;;;;;;;31.70;26.97;;;;;;;22.67;73.20;96703.88;4985058;28;20492;-90
2021/06/08 13:54:03;;;;;;;31.37;28.17;;;;;;;22.70;72.80;96705.41;4985479;28;20951;-88
2021/06/08 13:56:37;;;;;;;31.30;27.97;;;;;;;22.79;72.34;96703.75;4988981;28;20528;-88
2021/06/08 14:01:51;;;;;;;31.63;28.43;;;;;;;23.11;72.03;96691.53;4992198;28;20439;-89
2021/06/08 14:04:23;;;;;;;32.50;28.33;;;;;;;23.08;71.53;96692.75;4983383;28;20884;-92
2021/06/08 14:06:57;;;;;;;29.17;25.87;;;;;;;23.05;72.53;96687.78;4997703;28;20472;-95
2021/06/08 14:09:52;;;;;;;30.13;26.83;;;;;;;22.90;70.57;96684.34;4997119;28;20601;-95
2021/06/08 14:12:36;;;;;;;;;;;;;;;;;;;;;
2021/06/08 14:15:13;;;;;;;31.27;27.90;;;;;;;22.68;72.05;96685.34;4997709;28;20453;-96
2021/06/08 14:17:39;;;;;;;29.77;26.87;;;;;;;22.63;72.13;96681.63;4989705;28;20457;-93
2021/06/08 14:20:11;;;;;;;28.53;25.63;;;;;;;22.60;72.64;96684.91;4985686;28;20494;-90
2021/06/08 14:22:42;;;;;;;27.77;24.97;;;;;;;22.61;72.82;96683.59;4989020;28;20421;-94
2021/06/08 14:25:08;;;;;;;32.53;25.87;;;;;;;22.85;72.28;96682.72;4991591;28;20446;-93
2021/06/08 14:27:35;;;;;;;31.40;28.03;;;;;;;23.10;70.31;96686.63;4990563;28;20493;-93
2021/06/08 14:30:02;;;;;;;26.13;23.33;;;;;;;23.50;69.83;96682.28;4993543;28;20508;-94
2021/06/08 14:32:29;;;;;;;28.57;24.80;;;;;;;23.72;68.25;96680.50;4989534;28;20513;-94
2021/06/08 14:34:58;;;;;;;29.73;25.40;;;;;;;23.64;69.58;96683.63;4991711;28;20505;-94
2021/06/08 14:37:24;;;;;;;26.10;23.50;;;;;;;23.22;69.35;96682.38;4988820;28;20450;-94
2021/06/08 14:39:50;;;;;;;28.23;25.23;;;;;;;22.87;70.55;96671.81;4990843;28;20474;-93
2021/06/08 14:42:21;;;;;;;26.97;24.30;;;;;;;22.86;71.80;96677.94;4994014;28;20453;-94
2021/06/08 14:44:49;;;;;;;28.23;25.17;;;;;;;23.09;69.60;96674.19;4995966;28;20460;-94
2021/06/08 14:47:19;;;;;;;25.77;23.07;;;;;;;23.46;69.26;96677.31;4998690;28;20489;-93
2021/06/08 14:49:47;;;;;;;26.07;23.43;;;;;;;23.57;70.37;96665.41;4998279;28;20432;-93
2021/06/08 14:52:14;;;;;;;28.90;24.30;;;;;;;23.81;69.42;96674.00;5000375;28;20505;-94
2021/06/08 14:54:41;;;;;;;26.37;23.80;;;;;;;23.60;68.36;96671.72;4999025;28;20441;-94
2021/06/08 14:57:07;;;;;;;31.80;25.73;;;;;;;23.29;68.48;96681.34;4990366;28;20849;-93
2021/06/08 14:59:34;;;;;;;27.90;24.20;;;;;;;23.29;67.90;96673.06;4989040;28;20448;-92
2021/06/08 15:02:00;;;;;;;24.03;21.70;;;;;;;23.48;68.33;96676.69;4994869;28;20446;-92
2021/06/08 15:04:26;;;;;;;26.00;23.37;;;;;;;23.57;67.62;96662.66;4992968;28;20477;-94
2021/06/08 15:06:57;;;;;;;28.03;25.13;;;;;;;23.68;66.63;96664.50;4991054;28;20478;-93
2021/06/08 15:09:25;;;;;;;21.60;19.53;;;;;;;23.86;67.68;96665.31;4991297;28;20497;-93
2021/06/08 15:11:51;;;;;;;23.43;21.03;;;;;;;24.01;66.14;96655.59;4992209;28;20457;-94
2021/06/08 15:14:18;;;;;;;27.93;23.40;;;;;;;23.92;66.03;96656.59;4989534;28;20426;-92
2021/06/08 15:16:44;;;;;;;26.57;21.47;;;;;;;23.77;66.40;96665.59;4995974;28;20462;-92
2021/06/08 15:19:10;;;;;;;23.67;21.20;;;;;;;23.79;66.83;96660.88;4994540;28;20478;-93
2021/06/08 15:21:37;;;;;;;27.23;20.07;;;;;;;23.86;66.17;96656.34;4993422;28;20473;-93
2021/06/08 15:24:08;;;;;;;25.13;22.50;;;;;;;24.04;66.09;96654.34;4991183;28;20441;-94
2021/06/08 15:26:34;;;;;;;25.70;21.53;;;;;;;;;;4990556;28;20493;-93
2021/06/08 15:29:04;;;;;;;23.57;21.17;;;;;;;23.96;66.86;96657.47;4989867;28;20472;-93
2021/06/08 15:31:30;;;;;;;23.43;21.10;;;;;;;24.30;66.45;96658.25;4992197;28;20923;-93
2021/06/08 15:33:57;;;;;;;22.40;20.30;;;;;;;24.48;65.82;96664.50;4993987;28;20431;-93
2021/06/08 15:36:23;;;;;;;23.80;21.40;;;;;;;24.53;65.04;96663.31;4997857;28;20462;-93
2021/06/08 15:38:50;;;;;;;26.50;21.40;;;;;;;24.37;64.80;96659.91;5000249;28;20434;-91
2021/06/08 15:41:17;;;;;;;22.07;19.57;;;;;;;24.31;65.45;96656.91;4999548;28;20440;-92
2021/06/08 15:43:44;;;;;;;22.20;19.83;;;;;;;24.55;64.03;96667.53;4999600;28;20607;-93
2021/06/08 15:46:10;;;;;;;22.03;19.83;;;;;;;24.52;65.67;96661.22;4999943;28;20541;-94
2021/06/08 15:48:36;;;;;;;24.43;21.83;;;;;;;24.68;64.58;96664.63;4999711;28;20496;-94
2021/06/08 15:51:11;;;;;;;24.27;21.77;;;;;;;24.69;65.64;96660.50;4995451;28;20474;-93
2021/06/08 15:53:38;;;;;;;22.53;20.33;;;;;;;24.53;65.75;96659.84;4990012;28;20442;-92
2021/06/08 15:56:05;;;;;;;23.47;20.53;;;;;;;24.45;65.00;96659.53;4991105;28;20484;-95
2021/06/08 15:58:35;;;;;;;22.47;20.20;;;;;;;24.21;66.58;96645.47;4993836;28;20493;-95
2021/06/08 16:01:01;;;;;;;23.73;20.93;;;;;;;24.37;66.45;96646.09;4992547;28;20446;-93
2021/06/08 16:03:28;;;;;;;25.20;20.93;;;;;;;24.54;66.91;96644.72;4998724;28;20477;-94
2021/06/08 16:05:57;;;;;;;22.70;18.77;;;;;;;24.14;67.36;96646.53;5015250;28;20456;-92
2021/06/08 16:08:23;;;;;;;22.10;19.80;;;;;;;23.88;68.43;96651.63;4999276;28;20490;-92
2021/06/08 16:10:49;;;;;;;22.20;19.90;;;;;;;24.37;67.82;96646.09;4997586;28;20572;-93
2021/06/08 16:13:17;;;;;;;25.10;22.50;;;;;;;24.13;68.49;96645.09;4993034;28;20453;-93
2021/06/08 16:15:48;;;;;;;25.37;22.90;;;;;;;23.88;70.05;96637.13;4994785;28;20497;-93